• Join FlightAware (Why Join?)
  • Login
  • US Flag 
04:01AM EST


 

Airport Tracker/Info


-or-


 

Live Flight TrackerFlight Track Log ✈ SKW5550 ✈ 20-Jan-2014 ✈ KCOD - KDEN

Flight Track Log - Related Links

Times and Time Zones

All times are in EST time to prevent confusion due to time zone crossing. See the SKW5550 flight status page for this flight to view local times or setup timezone preferences in your user account.

Time Position Orientation Groundspeed Altitude Reporting Facility
EST Latitude Longitude Course Direction KTS MPH feet Rate Location/Type
07:54AM 44.5047 -109.0533 156° South 158 182 6,400  Level Salt Lake Center
07:55AM 44.4617 -109.0442 171° South 222 255 8,800 2,400 Climbing Salt Lake Center
07:56AM 44.0894 -108.5863 157° South  Level Estimated
07:56AM 44.4956 -108.9847 51° Northeast 227 261 11,300  Level Salt Lake Center
07:57AM 44.0030 -108.4995 157° South  Level Estimated
07:57AM 44.5583 -108.9942 354° North 225 259 14,000  Level Salt Lake Center
07:58AM 43.8998 -108.4628 166° South  Level FlightAware Approximate
07:58AM 44.6069 -108.9342 41° Northeast 262 302 16,300  Level Salt Lake Center
07:59AM 43.8139 -108.3755 156° South  Level Estimated
07:59AM 44.5497 -108.8475 133° Southeast 324 373 17,800  Level Salt Lake Center
08:00AM 44.4525 -108.8458 179° South 349 402 19,800 1,500 Climbing Salt Lake Center
08:01AM 44.3511 -108.8103 166° South 370 426 20,800 960 Climbing Salt Lake Center
08:02AM 44.2486 -108.7506 157° South 391 450 21,800 1,080 Climbing Salt Lake Center
08:03AM 44.1419 -108.6897 158° South 407 468 23,000 1,140 Climbing Salt Lake Center
08:04AM 44.0331 -108.6264 157° South 421 484 24,200 1,200 Climbing Salt Lake Center
08:05AM 43.9231 -108.5622 157° South 429 494 25,500 1,140 Climbing Salt Lake Center
08:06AM 43.8144 -108.4994 157° South 426 490 26,500 900 Climbing Salt Lake Center
08:07AM 43.7042 -108.4361 157° South 430 495 27,400 720 Climbing Salt Lake Center
08:08AM 43.5911 -108.3739 158° South 437 503 28,000 540 Climbing Salt Lake Center
08:09AM 43.4767 -108.3075 157° South 447 514 28,600 540 Climbing Salt Lake Center
08:10AM 43.3719 -108.2064 145° Southeast 459 528 29,200 600 Climbing Salt Lake Center
08:11AM 43.2717 -108.0964 141° Southeast 463 533 29,800 600 Climbing Salt Lake Center
08:12AM 43.1522 -107.9708 143° Southeast 460 529 30,400 540 Climbing Salt Lake Center
08:13AM 43.0478 -107.8631 143° Southeast 462 532 30,900 240 Climbing Salt Lake Center
08:14AM 42.9461 -107.7556 142° Southeast 464 534 31,000  Climbing Salt Lake Center
08:15AM 42.8561 -107.6614 142° Southeast 468 539 31,000  Level Salt Lake Center
08:16AM 42.7417 -107.5414 142° Southeast 466 536 31,000  Level Salt Lake Center
08:17AM 42.6450 -107.4419 143° Southeast 459 528 31,000  Level Salt Lake Center
08:18AM 42.5458 -107.3392 143° Southeast 463 533 31,000  Level Salt Lake Center
08:19AM 42.4472 -107.2375 143° Southeast 465 535 31,000  Level Salt Lake Center
08:20AM 42.3658 -107.1539 143° Southeast 462 532 31,000  Level Denver Center
08:21AM 42.2500 -107.0364 143° Southeast 464 534 31,000  Level Denver Center
08:22AM 42.1519 -106.9367 143° Southeast 462 532 31,000  Level Denver Center
08:23AM 42.0525 -106.8364 143° Southeast 464 534 31,000  Level Denver Center
08:24AM 41.9367 -106.7208 143° Southeast 464 534 31,000  Level Denver Center
08:25AM 41.8369 -106.6233 144° Southeast 462 532 31,000  Level Denver Center
08:26AM 41.7378 -106.5264 144° Southeast 460 529 31,000  Level Denver Center
08:27AM 41.6325 -106.4236 144° Southeast 461 531 31,000  Level Denver Center
08:28AM 41.5331 -106.3269 144° Southeast 462 532 31,000  Level Denver Center
08:29AM 41.4178 -106.2161 144° Southeast 459 528 31,000  Level Denver Center
08:30AM 41.3192 -106.1214 144° Southeast 458 527 31,000  Level Denver Center
08:31AM 41.2203 -106.0261 144° Southeast 459 528 31,000  Level Denver Center
08:32AM 41.1039 -105.9128 144° Southeast 463 533 31,000  Level Denver Center
08:33AM 41.0003 -105.8153 145° Southeast 460 529 31,000 -180 Level Denver Center
08:34AM 40.8958 -105.7161 144° Southeast 462 532 30,700 -1,020 Descending Denver Center
08:35AM 40.8100 -105.6364 145° Southeast 468 539 29,000 -2,160 Descending Denver Center
08:36AM 40.6867 -105.5208 145° Southeast 459 528 26,400 -2,280 Descending Denver Center
08:37AM 40.5908 -105.4153 140° Southeast 455 524 24,400 -1,980 Descending Denver Center
08:38AM 40.5194 -105.2869 126° Southeast 443 510 22,500 -1,920 Descending Denver Center
08:39AM 40.4286 -105.1856 140° Southeast 423 487 20,600 -1,980 Descending Denver Center
08:40AM 40.3383 -105.1142 149° Southeast 379 436 18,500 -1,980 Descending Denver Center
08:41AM 40.2506 -105.0453 149° Southeast 372 428 16,700 -1,680 Descending Denver Center
08:42AM 40.1692 -104.9786 148° Southeast 349 402 15,200 -1,140 Descending Denver Center
08:43AM 40.0925 -104.9181 149° Southeast 325 374 14,400 -840 Descending Denver Center
08:44AM 40.0200 -104.8606 149° Southeast 309 356 13,600 -840 Descending Denver Center
08:45AM 39.9422 -104.8086 153° Southeast 318 366 12,800 -1,200 Descending Denver Center
08:46AM 39.8539 -104.8081 180° South 296 341 11,200 -1,500 Descending Denver Center
08:47AM 39.7822 -104.7817 164° South 272 313 9,800 -1,140 Descending Denver Center
08:48AM 39.7133 -104.7483 160° South 266 306 9,000 -840 Descending Denver Center
08:49AM 39.7042 -104.6828 100° East 189 217 8,100 -960 Descending Denver Center
08:50AM 39.7431 -104.6639 20° North 140 161 7,100 -840 Descending Denver Center
08:51AM 39.7767 -104.6614 North 123 142 6,500 -660 Descending Denver Center
08:52AM 39.8108 -104.6606 North 120 138 5,800 -600 Descending Denver Center
08:53AM 39.8428 -104.6606 360° North 119 137 5,400 -420 Descending Denver Center